Time;durP1;ratioP1;P1;durP2;ratioP2;P2;SDS_P1;SDS_P2;PMS_P1;PMS_P2;Temp;Humidity;BMP_temperature;BMP_pressure;BME280_temperature;BME280_humidity;BME280_pressure;Samples;Min_cycle;Max_cycle;Signal;HPM_P1;HPM_P2
2020/12/20 00:00:21;;;;;;;140.83;70.00;;;;;;;-0.01;74.18;100030.16;125415;1093;104487;-71
2020/12/20 00:02:58;;;;;;;132.20;68.73;;;;;;;-0.04;73.99;100029.34;127838;1102;102380;-72
2020/12/20 00:05:27;;;;;;;104.80;55.37;;;;;;;-0.05;74.38;100035.46;126532;1101;104504;-71
2020/12/20 00:07:55;;;;;;;100.40;54.20;;;;;;;-0.07;74.26;100034.61;125535;1095;104917;-71
2020/12/20 00:10:22;;;;;;;89.47;49.67;;;;;;;-0.10;74.12;100035.50;126039;1096;104579;-71
2020/12/20 00:12:54;;;;;;;95.40;49.87;;;;;;;-0.11;74.25;100039.00;127000;1096;104414;-72
2020/12/20 00:15:22;;;;;;;100.70;54.80;;;;;;;-0.13;74.24;100035.55;125686;1096;104877;-73
2020/12/20 00:17:51;;;;;;;103.73;56.50;;;;;;;-0.16;74.26;100035.58;125575;1096;104488;-71
2020/12/20 00:20:19;;;;;;;106.30;56.70;;;;;;;-0.17;73.79;100036.46;125488;1096;104497;-71
2020/12/20 00:22:47;;;;;;;108.30;57.55;;;;;;;-0.22;74.14;100031.30;125581;1096;104504;-70
2020/12/20 00:25:14;;;;;;;105.90;56.60;;;;;;;-0.23;73.79;100034.80;125634;1101;104430;-71
2020/12/20 00:27:41;;;;;;;112.60;59.05;;;;;;;-0.27;74.05;100035.72;125544;1102;105022;-71
2020/12/20 00:30:10;;;;;;;105.23;54.93;;;;;;;-0.28;74.38;100035.76;125555;1101;104891;-72
2020/12/20 00:32:37;;;;;;;110.83;57.13;;;;;;;-0.29;74.41;100034.03;125725;1096;104420;-71
2020/12/20 00:35:06;;;;;;;104.03;55.50;;;;;;;-0.33;74.11;100034.06;125792;1096;104455;-71
2020/12/20 00:37:33;;;;;;;272.97;140.20;;;;;;;-0.35;74.28;100033.22;125731;1101;104482;-72
2020/12/20 00:40:04;;;;;;;161.23;81.97;;;;;;;-0.37;74.48;100034.98;126613;1096;104497;-71
2020/12/20 00:42:31;;;;;;;118.23;60.50;;;;;;;-0.38;74.11;100035.86;125766;1096;104583;-71
2020/12/20 00:44:59;;;;;;;98.60;50.43;;;;;;;-0.42;74.58;100031.55;125625;1096;104420;-71
2020/12/20 00:47:25;;;;;;;95.90;50.17;;;;;;;-0.43;74.39;100027.20;125660;1097;104513;-71
2020/12/20 00:49:52;;;;;;;95.40;48.85;;;;;;;-0.43;74.16;100034.20;125554;1096;104554;-71
2020/12/20 00:52:20;;;;;;;94.13;48.20;;;;;;;-0.45;74.51;100034.20;125670;1094;104418;-71
2020/12/20 00:54:47;;;;;;;162.87;95.13;;;;;;;-0.49;73.98;100033.39;125616;1093;104566;-71
2020/12/20 00:57:14;;;;;;;108.13;57.53;;;;;;;-0.50;74.50;100038.62;125577;1093;104910;-72
2020/12/20 00:59:41;;;;;;;99.30;50.43;;;;;;;-0.53;73.85;100036.04;125722;1093;104392;-72
2020/12/20 01:02:08;;;;;;;107.27;52.80;;;;;;;-0.56;74.16;100043.91;125789;1101;104859;-72
2020/12/20 01:04:36;;;;;;;91.73;49.07;;;;;;;-0.58;73.90;100036.10;125640;1096;105427;-72
2020/12/20 01:07:03;;;;;;;95.57;53.08;;;;;;;-0.60;74.34;100030.03;125715;1093;104439;-72
2020/12/20 01:09:30;;;;;;;97.43;50.77;;;;;;;-0.60;74.11;100033.48;126864;1093;104539;-72
2020/12/20 01:12:03;;;;;;;93.93;48.90;;;;;;;-0.61;74.27;100039.59;125592;1101;104500;-72
2020/12/20 01:14:31;;;;;;;93.10;47.97;;;;;;;-0.65;73.95;100035.31;125825;1102;104424;-72
2020/12/20 01:17:06;;;;;;;89.83;45.83;;;;;;;-0.67;74.08;100025.75;125776;1093;104528;-73
2020/12/20 01:19:38;;;;;;;85.53;44.47;;;;;;;-0.67;74.13;100038.81;125719;1093;104504;-72
2020/12/20 01:22:05;;;;;;;86.93;46.63;;;;;;;-0.67;73.90;100039.70;125682;1096;104583;-73
2020/12/20 01:24:32;;;;;;;91.03;46.83;;;;;;;-0.67;74.05;100039.70;125608;1093;104443;-72
2020/12/20 01:26:59;;;;;;;87.43;46.00;;;;;;;-0.69;73.69;100030.13;125738;1101;104421;-73
2020/12/20 01:29:26;;;;;;;84.62;43.78;;;;;;;-0.73;74.33;100029.30;125866;1097;104501;-72
2020/12/20 01:31:53;;;;;;;85.70;45.30;;;;;;;-0.80;73.55;100030.24;125549;1093;104423;-72
2020/12/20 01:34:22;;;;;;;81.80;43.77;;;;;;;-0.82;74.18;100035.50;125723;1093;104595;-72
2020/12/20 01:36:50;;;;;;;88.57;46.93;;;;;;;-0.86;74.34;100033.80;125780;1096;104548;-72
2020/12/20 01:39:17;;;;;;;84.60;44.57;;;;;;;-0.85;73.84;100032.04;125894;1093;104929;-71
2020/12/20 01:41:54;;;;;;;86.80;46.47;;;;;;;-0.90;73.91;100032.95;125915;1097;104573;-71
2020/12/20 01:44:21;;;;;;;82.40;44.40;;;;;;;-0.92;74.11;100032.09;125752;1097;104478;-74
2020/12/20 01:46:52;;;;;;;86.40;46.60;;;;;;;-0.94;74.02;100025.17;125897;1101;104483;-74
2020/12/20 01:49:19;;;;;;;96.97;49.80;;;;;;;-0.99;74.37;100024.34;125693;1093;104557;-73
2020/12/20 01:51:51;;;;;;;105.37;53.60;;;;;;;-1.00;74.00;100022.61;127573;1101;102273;-73
2020/12/20 01:54:22;;;;;;;106.07;54.10;;;;;;;-1.01;74.67;100019.13;125758;1096;104503;-73
2020/12/20 01:56:54;;;;;;;90.20;43.80;;;;;;;-1.02;73.84;100016.54;125762;1093;104529;-73
2020/12/20 01:59:21;;;;;;;92.93;48.17;;;;;;;-1.05;74.07;100023.52;125794;1093;104429;-74
2020/12/20 02:01:48;;;;;;;90.15;46.25;;;;;;;-1.06;73.67;100013.95;125780;1093;104439;-72
2020/12/20 02:04:15;;;;;;;99.73;54.17;;;;;;;-1.09;74.54;100019.20;125552;1093;104416;-71
2020/12/20 02:06:44;;;;;;;106.67;56.27;;;;;;;-1.12;73.63;100018.38;125615;1093;104506;-72
2020/12/20 02:09:11;;;;;;;104.73;55.17;;;;;;;-1.15;73.64;100015.80;125625;1093;104525;-72
2020/12/20 02:11:38;;;;;;;107.92;55.35;;;;;;;-1.16;73.67;100019.29;125526;1093;104557;-72
2020/12/20 02:14:04;;;;;;;115.17;57.83;;;;;;;-1.17;73.90;100017.55;125536;1097;104484;-71
2020/12/20 02:16:31;;;;;;;71.57;36.73;;;;;;;-1.18;74.43;100021.89;125651;1101;104917;-71
2020/12/20 02:18:58;;;;;;;70.43;36.33;;;;;;;-1.18;73.87;100008.84;126411;1093;104461;-72
2020/12/20 02:21:25;;;;;;;74.83;35.37;;;;;;;-1.16;75.09;100003.63;125678;1093;104421;-71
2020/12/20 02:23:52;;;;;;;69.10;34.27;;;;;;;-1.16;74.34;100009.70;125649;1093;104476;-72
2020/12/20 02:26:24;;;;;;;62.30;33.33;;;;;;;-1.13;75.06;100003.59;125740;1093;104484;-71
2020/12/20 02:28:58;;;;;;;64.17;32.67;;;;;;;-1.08;74.29;100002.66;125630;1097;104576;-73
2020/12/20 02:31:25;;;;;;;;;;;;;;;-1.04;74.30;100006.13;125703;1093;104549;-72
2020/12/20 02:33:53;;;;;;;66.27;32.80;;;;;;;-1.01;74.81;100007.83;125773;1093;104413;-72
2020/12/20 02:36:20;;;;;;;69.70;35.13;;;;;;;-0.96;74.52;100000.81;125692;1093;104422;-71
2020/12/20 02:38:47;;;;;;;85.77;42.83;;;;;;;-0.92;74.29;100015.58;125666;1101;104574;-72
2020/12/20 02:41:18;;;;;;;65.10;35.23;;;;;;;-0.91;74.84;100010.31;125530;1093;104573;-73
2020/12/20 02:43:48;;;;;;;64.23;32.67;;;;;;;-0.88;75.28;100016.39;125899;1096;104430;-72
2020/12/20 02:46:18;;;;;;;74.70;36.43;;;;;;;-0.89;74.88;100015.55;127805;1101;102536;-72
2020/12/20 02:48:45;;;;;;;69.03;35.70;;;;;;;-0.86;74.83;100007.67;127811;1101;102463;-73
2020/12/20 02:51:16;;;;;;;64.83;34.03;;;;;;;-0.84;74.21;100010.26;127426;1102;102226;-72
2020/12/20 02:53:45;;;;;;;73.33;38.10;;;;;;;-0.83;74.62;100007.65;125746;1101;104500;-72
2020/12/20 02:56:19;;;;;;;77.47;41.20;;;;;;;-0.83;74.18;100010.26;125663;1093;104411;-71
2020/12/20 02:58:47;;;;;;;70.50;36.60;;;;;;;-0.85;73.96;100008.53;125770;1093;104554;-72
2020/12/20 03:01:14;;;;;;;77.20;39.90;;;;;;;-0.85;75.06;100005.91;127292;1101;104408;-72
2020/12/20 03:03:45;;;;;;;87.25;43.90;;;;;;;-0.87;74.06;100013.78;126942;1101;105083;-72
2020/12/20 03:06:12;;;;;;;91.23;46.83;;;;;;;-0.89;74.51;100012.94;125839;1093;104557;-71
2020/12/20 03:08:40;;;;;;;89.65;46.55;;;;;;;-0.92;73.67;100015.58;125674;1093;104624;-71
2020/12/20 03:11:07;;;;;;;95.70;50.90;;;;;;;-0.98;74.36;100013.87;125582;1096;104483;-71
2020/12/20 03:13:34;;;;;;;91.77;46.60;;;;;;;-1.00;74.38;100022.61;125599;1101;104496;-72
2020/12/20 03:16:02;;;;;;;104.85;55.40;;;;;;;-1.05;74.57;100015.69;125657;1093;104573;-72
2020/12/20 03:18:29;;;;;;;102.20;53.53;;;;;;;-1.07;73.74;100016.59;125604;1093;104557;-71
2020/12/20 03:20:56;;;;;;;108.60;54.40;;;;;;;-1.11;74.14;100018.36;125470;1097;104490;-71
2020/12/20 03:23:23;;;;;;;109.63;54.50;;;;;;;-1.13;74.80;100016.66;125594;1093;104500;-72
2020/12/20 03:25:50;;;;;;;109.20;56.80;;;;;;;-1.15;74.71;100023.63;125642;1101;104897;-73
2020/12/20 03:28:17;;;;;;;138.20;67.33;;;;;;;-1.18;74.18;100024.51;125707;1097;104557;-72
2020/12/20 03:30:44;;;;;;;207.03;102.30;;;;;;;-1.22;73.69;100031.52;125533;1093;104550;-72
2020/12/20 03:33:11;;;;;;;163.65;80.07;;;;;;;-1.24;74.71;100025.44;125714;1096;104551;-71
2020/12/20 03:35:38;;;;;;;142.87;69.93;;;;;;;-1.27;74.29;100022.00;125768;1101;104563;-71
2020/12/20 03:38:05;;;;;;;187.70;91.17;;;;;;;-1.29;74.71;100024.61;125703;1096;104477;-71
2020/12/20 03:40:32;;;;;;;184.50;90.77;;;;;;;-1.29;74.38;100015.94;125499;1097;105073;-71
2020/12/20 03:42:59;;;;;;;204.03;99.33;;;;;;;-1.30;74.60;100014.20;125849;1093;104475;-71
2020/12/20 03:45:26;;;;;;;194.63;90.60;;;;;;;-1.30;74.42;100022.03;126948;1101;104467;-71
2020/12/20 03:47:53;;;;;;;191.97;95.50;;;;;;;-1.36;73.58;100026.42;125613;1101;104945;-71
2020/12/20 03:50:20;;;;;;;198.90;99.77;;;;;;;-1.38;74.21;100027.30;125686;1093;104548;-70
2020/12/20 03:52:46;;;;;;;198.65;98.52;;;;;;;-1.41;74.29;100022.98;125724;1096;104429;-72
2020/12/20 03:55:13;;;;;;;197.37;98.87;;;;;;;-1.43;74.17;100027.34;125813;1096;104414;-73
2020/12/20 03:57:40;;;;;;;197.70;101.10;;;;;;;-1.45;73.88;100028.25;125680;1093;104391;-72
2020/12/20 04:00:07;;;;;;;207.60;101.43;;;;;;;-1.46;74.20;100034.34;125503;1093;104469;-71
2020/12/20 04:02:35;;;;;;;212.13;101.93;;;;;;;-1.49;74.18;100035.22;125635;1101;104554;-71
2020/12/20 04:05:03;;;;;;;202.57;102.13;;;;;;;-1.51;74.41;100035.24;125666;1093;105000;-72
2020/12/20 04:07:30;;;;;;;191.17;98.67;;;;;;;-1.56;74.65;100034.41;125690;1096;104430;-71
2020/12/20 04:09:57;;;;;;;178.93;91.53;;;;;;;-1.58;74.31;100032.67;125616;1096;104446;-71
2020/12/20 04:12:24;;;;;;;172.50;90.72;;;;;;;-1.59;74.67;100034.43;125645;1101;104414;-71
2020/12/20 04:14:51;;;;;;;90.65;47.75;;;;;;;-1.61;74.13;100028.35;125662;1096;104416;-71
2020/12/20 04:17:19;;;;;;;130.20;67.80;;;;;;;-1.65;74.67;100034.47;125689;1096;104525;-72
2020/12/20 04:19:46;;;;;;;153.70;78.12;;;;;;;-1.66;74.89;100031.02;125668;1101;104939;-71
2020/12/20 04:22:13;;;;;;;164.90;78.73;;;;;;;-1.67;74.27;100029.28;125693;1096;104869;-72
2020/12/20 04:24:40;;;;;;;135.07;65.90;;;;;;;-1.67;74.27;100034.49;125716;1096;104417;-72
2020/12/20 04:27:07;;;;;;;139.17;68.37;;;;;;;-1.68;74.15;100032.76;125628;1093;104432;-72
2020/12/20 04:29:34;;;;;;;162.37;80.87;;;;;;;-1.68;74.58;100029.27;125669;1096;105098;-71
2020/12/20 04:32:03;;;;;;;136.95;69.45;;;;;;;-1.70;74.29;100031.91;125557;1093;104430;-72
2020/12/20 04:34:30;;;;;;;165.23;85.00;;;;;;;-1.69;73.50;100028.42;125779;1096;104437;-72
2020/12/20 04:36:57;;;;;;;154.10;80.17;;;;;;;-1.70;73.61;100031.02;125633;1093;104405;-71
2020/12/20 04:39:25;;;;;;;154.87;76.70;;;;;;;-1.72;74.06;100030.16;125686;1093;104414;-72
2020/12/20 04:41:52;;;;;;;154.87;81.80;;;;;;;-1.72;73.55;100030.16;125612;1093;104561;-71
2020/12/20 04:44:19;;;;;;;161.73;80.23;;;;;;;-1.73;74.11;100028.43;126348;1097;102256;-71
2020/12/20 04:46:49;;;;;;;122.50;61.93;;;;;;;-1.75;74.19;100023.24;126096;1093;104538;-72
2020/12/20 04:49:16;;;;;;;141.07;74.70;;;;;;;-1.78;74.57;100028.47;125719;1093;104455;-71
2020/12/20 04:51:54;;;;;;;134.43;67.63;;;;;;;-1.80;74.83;100027.63;125947;1093;104458;-71
2020/12/20 04:54:24;;;;;;;138.77;69.63;;;;;;;-1.80;74.06;100032.84;125758;1093;104506;-74
2020/12/20 04:56:52;;;;;;;129.03;63.17;;;;;;;-1.80;73.84;100032.84;125711;1093;104446;-72
2020/12/20 04:59:19;;;;;;;122.77;66.00;;;;;;;-1.81;73.57;100036.32;125660;1093;104643;-72
2020/12/20 05:01:46;;;;;;;133.50;65.45;;;;;;;-1.85;74.18;100026.78;125547;1093;104489;-72
2020/12/20 05:04:14;;;;;;;146.70;71.70;;;;;;;-1.83;74.74;100033.70;125655;1093;104862;-72
2020/12/20 05:06:43;;;;;;;147.60;75.23;;;;;;;-1.85;73.43;100045.92;125575;1093;104424;-71
2020/12/20 05:09:11;;;;;;;158.07;79.60;;;;;;;-1.88;74.25;100042.44;125756;1093;104449;-72
2020/12/20 05:11:44;;;;;;;156.13;81.43;;;;;;;-1.90;74.41;100039.86;125958;1101;103853;-71
2020/12/20 05:14:13;;;;;;;;;;;;;;;-1.90;74.65;100049.41;125650;1093;104624;-69
2020/12/20 05:16:41;;;;;;;147.27;75.57;;;;;;;-1.92;74.23;100040.73;125749;1093;104299;-72
2020/12/20 05:19:15;;;;;;;151.27;83.07;;;;;;;-2.01;74.36;100052.08;125711;1102;104420;-71
2020/12/20 05:21:45;;;;;;;171.97;91.13;;;;;;;-2.04;74.76;100057.31;126463;1101;104473;-71
2020/12/20 05:24:32;;;;;;;176.70;93.27;;;;;;;-2.03;74.49;100054.69;125704;1093;104689;-72
2020/12/20 05:27:02;;;;;;;178.00;91.50;;;;;;;-2.00;73.63;100057.27;125772;1093;104455;-73
2020/12/20 05:29:29;;;;;;;175.90;92.63;;;;;;;-2.01;73.54;100062.52;125734;1093;104528;-71
2020/12/20 05:31:56;;;;;;;173.67;89.97;;;;;;;-2.00;74.12;100062.48;125629;1096;104548;-71
2020/12/20 05:34:27;;;;;;;179.77;93.10;;;;;;;-1.98;74.09;100060.74;125712;1096;104545;-71
2020/12/20 05:37:06;;;;;;;183.60;95.07;;;;;;;-1.97;74.61;100067.69;125667;1093;104707;-72
2020/12/20 05:39:37;;;;;;;191.10;101.50;;;;;;;-1.96;74.93;100073.79;125632;1093;104517;-71
2020/12/20 05:42:06;;;;;;;184.63;98.30;;;;;;;-1.98;74.11;100070.32;125654;1096;104405;-71
2020/12/20 05:44:33;;;;;;;193.20;103.90;;;;;;;-1.98;74.52;100068.56;125634;1093;104410;-71
2020/12/20 05:47:06;;;;;;;188.42;98.52;;;;;;;-1.98;74.08;100072.93;125814;1101;104904;-71
2020/12/20 05:49:37;;;;;;;182.90;95.73;;;;;;;-1.98;73.75;100073.78;125559;1093;104566;-70
2020/12/20 05:52:10;;;;;;;175.73;96.30;;;;;;;-1.97;74.21;100072.05;125614;1101;104536;-71
2020/12/20 05:54:42;;;;;;;174.20;96.12;;;;;;;-2.01;74.55;100068.58;125665;1101;104493;-71
2020/12/20 05:57:22;;;;;;;178.97;99.00;;;;;;;-1.99;74.61;100065.98;125642;1093;104544;-71
2020/12/20 05:59:54;;;;;;;183.20;96.33;;;;;;;-2.00;73.58;100069.46;125800;1093;104435;-71
2020/12/20 06:02:21;;;;;;;164.97;88.43;;;;;;;-2.02;74.12;100074.67;125660;1093;104568;-70
2020/12/20 06:04:49;;;;;;;155.80;78.53;;;;;;;-2.04;74.47;100072.95;125547;1096;104464;-70
2020/12/20 06:07:22;;;;;;;140.00;72.90;;;;;;;-2.07;74.51;100078.19;126013;1096;104541;-71
2020/12/20 06:09:58;;;;;;;142.00;75.28;;;;;;;-2.06;74.20;100069.48;125544;1093;104590;-71
2020/12/20 06:12:31;;;;;;;133.87;73.50;;;;;;;-2.04;73.62;100075.56;125555;1096;104545;-71
2020/12/20 06:14:59;;;;;;;132.33;72.00;;;;;;;-2.03;74.87;100075.54;125734;1093;104602;-71
2020/12/20 06:17:27;;;;;;;130.43;72.40;;;;;;;-2.02;73.76;100085.09;125597;1093;105012;-72
2020/12/20 06:20:01;;;;;;;119.80;65.87;;;;;;;-2.03;74.68;100085.12;126322;1093;104417;-71
2020/12/20 06:22:53;;;;;;;108.80;58.97;;;;;;;-2.03;74.67;100085.97;125759;1096;105019;-71
2020/12/20 06:25:28;;;;;;;103.70;54.80;;;;;;;-2.02;74.38;100086.85;127608;1102;102914;-71
2020/12/20 06:28:04;;;;;;;99.90;52.50;;;;;;;-2.01;73.77;100085.98;127030;1102;104555;-72
2020/12/20 06:30:31;;;;;;;94.10;50.40;;;;;;;-1.98;74.67;100086.82;125628;1093;104541;-72
2020/12/20 06:33:10;;;;;;;85.47;47.17;;;;;;;-1.99;74.62;100087.69;125675;1093;104432;-71
2020/12/20 06:35:41;;;;;;;87.13;45.50;;;;;;;-1.99;74.84;100085.09;125697;1095;104560;-71
2020/12/20 06:38:12;;;;;;;83.20;45.53;;;;;;;-1.98;74.46;100083.36;126523;1093;104487;-71
2020/12/20 06:40:41;;;;;;;79.43;42.00;;;;;;;-1.97;73.67;100087.70;125523;1093;104634;-70
2020/12/20 06:43:10;;;;;;;78.97;39.43;;;;;;;-2.00;74.64;100091.17;125734;1093;104423;-72
2020/12/20 06:45:44;;;;;;;76.43;38.37;;;;;;;-1.99;74.72;100097.27;125684;1093;104410;-70
2020/12/20 06:48:13;;;;;;;;;;;;;;;-1.99;73.71;100092.91;125629;1093;104416;-73
2020/12/20 06:50:47;;;;;;;73.63;32.77;;;;;;;-2.05;73.83;100095.57;125592;1097;104497;-71
2020/12/20 06:53:18;;;;;;;68.90;33.73;;;;;;;-2.04;74.12;100099.91;125565;1096;104535;-71
2020/12/20 06:55:46;;;;;;;74.13;36.50;;;;;;;-1.99;75.21;100097.27;125690;1093;104478;-73
2020/12/20 06:58:20;;;;;;;71.00;34.67;;;;;;;-1.98;73.98;100099.01;125716;1093;104419;-72
2020/12/20 07:00:50;;;;;;;65.03;33.87;;;;;;;-1.95;75.01;100098.99;125582;1093;104407;-71
2020/12/20 07:03:23;;;;;;;62.63;33.20;;;;;;;-1.91;74.13;100098.11;125672;1093;104518;-72
2020/12/20 07:05:53;;;;;;;71.63;33.63;;;;;;;-1.87;74.21;100106.77;127776;1101;103124;-76
2020/12/20 07:08:25;;;;;;;70.03;34.30;;;;;;;-1.84;74.40;100104.14;126467;1093;104416;-71
2020/12/20 07:10:58;;;;;;;69.35;33.95;;;;;;;-1.83;74.61;100111.09;125689;1101;104407;-73
2020/12/20 07:13:47;;;;;;;68.85;35.33;;;;;;;-1.81;74.44;100110.20;125592;1101;104593;-72
2020/12/20 07:16:18;;;;;;;67.60;34.40;;;;;;;-1.80;74.59;100108.48;125660;1093;104547;-70
2020/12/20 07:18:57;;;;;;;67.80;34.90;;;;;;;-1.75;74.12;100108.44;125708;1096;104551;-73
2020/12/20 07:21:24;;;;;;;58.07;29.67;;;;;;;-1.74;74.88;100112.78;125586;1096;104477;-70
2020/12/20 07:24:13;;;;;;;60.50;30.90;;;;;;;-1.73;74.79;100110.18;125696;1093;104610;-70
2020/12/20 07:26:41;;;;;;;57.33;27.83;;;;;;;-1.73;74.76;100115.40;125792;1093;104894;-71
2020/12/20 07:29:08;;;;;;;52.85;27.93;;;;;;;-1.70;75.09;100117.11;125857;1093;104442;-75
2020/12/20 07:31:35;;;;;;;47.37;23.27;;;;;;;-1.72;75.16;100114.52;125576;1093;104557;-75
2020/12/20 07:34:06;;;;;;;47.93;21.63;;;;;;;-1.74;73.86;100113.66;125584;1093;104666;-75
2020/12/20 07:36:34;;;;;;;48.50;22.70;;;;;;;-1.78;74.92;100113.67;125684;1101;104439;-72
2020/12/20 07:39:02;;;;;;;47.00;22.60;;;;;;;-1.73;75.15;100115.40;125636;1093;104660;-71
2020/12/20 07:41:29;;;;;;;46.23;23.97;;;;;;;-1.70;75.24;100112.77;125622;1097;105150;-69
2020/12/20 07:44:05;;;;;;;47.77;24.83;;;;;;;-1.65;74.20;100112.73;126004;1093;104939;-70
2020/12/20 07:46:33;;;;;;;49.57;25.93;;;;;;;-1.62;74.07;100114.45;125604;1093;104416;-70
2020/12/20 07:49:09;;;;;;;46.93;24.83;;;;;;;-1.57;74.59;100123.12;125573;1093;105044;-70
2020/12/20 07:51:37;;;;;;;49.03;23.50;;;;;;;-1.51;74.39;100121.36;125637;1093;104510;-70
2020/12/20 07:54:15;;;;;;;50.50;25.80;;;;;;;-1.47;74.41;100118.73;125699;1096;104551;-70
2020/12/20 07:56:46;;;;;;;49.70;24.73;;;;;;;-1.44;74.90;100122.17;125623;1093;104608;-70
2020/12/20 07:59:19;;;;;;;53.35;25.90;;;;;;;-1.40;75.19;100129.11;125477;1093;104500;-72
2020/12/20 08:01:48;;;;;;;43.40;23.42;;;;;;;-1.36;74.55;100129.95;125436;1093;104486;-71
2020/12/20 08:04:18;;;;;;;53.53;27.00;;;;;;;-1.30;74.97;100132.52;127677;1096;103490;-72
2020/12/20 08:06:49;;;;;;;48.57;25.57;;;;;;;-1.24;74.82;100134.23;126905;1093;102819;-71
2020/12/20 08:09:26;;;;;;;57.43;28.60;;;;;;;-1.17;74.47;100140.27;125781;1093;104554;-71
2020/12/20 08:11:59;;;;;;;60.17;29.97;;;;;;;-1.15;74.90;100141.13;126314;1094;104529;-71
2020/12/20 08:14:26;;;;;;;59.17;31.40;;;;;;;-1.12;74.61;100138.50;125821;1096;104592;-71
2020/12/20 08:16:54;;;;;;;59.95;32.25;;;;;;;-1.13;75.12;100137.61;125842;1096;104609;-70
2020/12/20 08:19:29;;;;;;;53.30;28.40;;;;;;;-1.08;74.33;100142.82;125820;1096;104456;-72
2020/12/20 08:22:05;;;;;;;55.45;30.55;;;;;;;-1.06;75.08;100147.14;125702;1096;104417;-71
2020/12/20 08:24:47;;;;;;;53.23;26.07;;;;;;;-1.06;74.27;100144.53;125845;1096;104475;-70
2020/12/20 08:27:30;;;;;;;57.80;30.27;;;;;;;-1.07;74.71;100147.17;125808;1096;104533;-72
2020/12/20 08:30:05;;;;;;;60.33;28.47;;;;;;;-1.06;74.93;100147.14;125709;1097;104544;-72
2020/12/20 08:33:03;;;;;;;62.53;30.00;;;;;;;-1.00;74.74;100146.21;125750;1096;104532;-72
2020/12/20 08:35:30;;;;;;;58.40;28.73;;;;;;;-0.94;74.91;100150.55;125707;1096;104579;-72
2020/12/20 08:38:01;;;;;;;57.53;30.70;;;;;;;-0.96;75.38;100154.91;125677;1096;104413;-75
2020/12/20 08:40:34;;;;;;;58.23;30.53;;;;;;;-0.96;74.54;100155.77;125800;1096;104430;-70
2020/12/20 08:43:05;;;;;;;54.57;31.37;;;;;;;-1.02;75.08;100152.34;125753;1102;104493;-69
2020/12/20 08:45:42;;;;;;;62.83;32.90;;;;;;;-1.02;75.17;100160.17;125786;1096;104477;-69
2020/12/20 08:48:09;;;;;;;65.63;34.07;;;;;;;-0.96;75.16;100160.13;125798;1096;104580;-70
2020/12/20 08:50:38;;;;;;;64.67;34.10;;;;;;;-0.87;75.02;100154.84;125701;1096;104478;-71
2020/12/20 08:53:09;;;;;;;64.25;31.75;;;;;;;-0.78;75.66;100157.35;125786;1096;104542;-71
2020/12/20 08:55:37;;;;;;;63.83;34.27;;;;;;;-0.67;75.17;100161.63;125389;1096;104631;-71
2020/12/20 08:58:07;;;;;;;58.65;30.35;;;;;;;-0.58;75.41;100161.55;125745;1096;104429;-71
2020/12/20 09:00:38;;;;;;;54.90;28.27;;;;;;;-0.58;75.49;100155.44;125639;1101;104618;-73
2020/12/20 09:03:06;;;;;;;60.43;31.27;;;;;;;-0.53;75.06;100159.77;125743;1096;104612;-75
2020/12/20 09:05:35;;;;;;;57.70;30.70;;;;;;;-0.46;75.11;100157.94;125668;1096;104606;-71
2020/12/20 09:08:05;;;;;;;64.63;32.53;;;;;;;-0.39;75.38;100157.00;125744;1096;104456;-71
2020/12/20 09:10:35;;;;;;;59.70;29.77;;;;;;;-0.41;75.06;100160.53;125695;1096;104488;-71
2020/12/20 09:13:06;;;;;;;63.30;33.03;;;;;;;-0.34;75.24;100162.17;125756;1096;104458;-71
2020/12/20 09:15:43;;;;;;;64.83;34.17;;;;;;;-0.27;75.68;100161.23;125601;1096;104442;-71
2020/12/20 09:18:21;;;;;;;71.40;36.57;;;;;;;-0.17;75.04;100159.37;125727;1093;104487;-70
2020/12/20 09:20:50;;;;;;;78.87;37.33;;;;;;;-0.11;75.21;100148.84;125660;1096;104951;-70
2020/12/20 09:23:24;;;;;;;82.07;41.40;;;;;;;-0.03;75.51;100152.25;125752;1101;104535;-70
2020/12/20 09:26:04;;;;;;;80.93;34.57;;;;;;;0.01;75.50;100146.98;125762;1093;104423;-71
2020/12/20 09:28:33;;;;;;;68.63;34.80;;;;;;;-0.09;75.29;100146.23;125778;1093;104474;-68
2020/12/20 09:31:11;;;;;;;68.27;36.07;;;;;;;-0.09;75.46;100146.23;125694;1093;104417;-70
2020/12/20 09:33:38;;;;;;;68.97;36.77;;;;;;;-0.06;75.78;100143.59;125655;1093;104462;-71
2020/12/20 09:36:18;;;;;;;79.03;39.10;;;;;;;-0.04;75.45;100141.81;125682;1096;104551;-71
2020/12/20 09:38:49;;;;;;;80.03;40.80;;;;;;;-0.01;75.95;100142.64;125643;1093;104445;-71
2020/12/20 09:41:21;;;;;;;79.17;41.23;;;;;;;-0.02;75.36;100137.44;125593;1093;104453;-72
2020/12/20 09:43:51;;;;;;;68.00;33.05;;;;;;;-0.04;75.28;100142.67;125901;1093;104423;-72
2020/12/20 09:46:29;;;;;;;66.90;35.83;;;;;;;-0.11;75.21;100150.61;125688;1093;104549;-72
2020/12/20 09:49:01;;;;;;;66.07;33.93;;;;;;;-0.11;75.19;100143.62;125694;1093;104500;-73
2020/12/20 09:51:32;;;;;;;67.23;33.80;;;;;;;-0.09;75.12;100135.77;125654;1093;104484;-71
2020/12/20 09:54:00;;;;;;;67.97;34.77;;;;;;;-0.08;75.73;100135.73;125663;1093;104464;-73
2020/12/20 09:56:28;;;;;;;69.67;39.60;;;;;;;-0.06;75.52;100139.20;125728;1094;104419;-69
2020/12/20 09:58:55;;;;;;;77.45;42.55;;;;;;;0.02;75.48;100133.88;125673;1093;104446;-71
2020/12/20 10:01:25;;;;;;;82.47;44.70;;;;;;;0.09;75.74;100139.91;125639;1093;104446;-69
2020/12/20 10:03:53;;;;;;;80.63;41.20;;;;;;;0.18;76.00;100131.08;127784;1101;104143;-69
2020/12/20 10:06:20;;;;;;;85.87;44.90;;;;;;;0.26;75.77;100129.23;127024;1102;103233;-71
2020/12/20 10:08:48;;;;;;;64.40;32.90;;;;;;;0.25;75.61;100128.34;125604;1093;104423;-70
2020/12/20 10:11:21;;;;;;;67.87;34.83;;;;;;;0.20;75.56;100122.34;125545;1093;104445;-70
2020/12/20 10:13:52;;;;;;;60.37;31.93;;;;;;;0.16;75.27;100112.79;125936;1096;104502;-73
2020/12/20 10:16:21;;;;;;;68.83;36.53;;;;;;;0.16;75.69;100112.79;125459;1101;104438;-71
2020/12/20 10:18:48;;;;;;;78.33;39.20;;;;;;;0.20;75.52;100105.75;125684;1093;104455;-69
2020/12/20 10:21:18;;;;;;;67.13;33.20;;;;;;;0.22;75.35;100110.06;125650;1093;104450;-70
2020/12/20 10:23:49;;;;;;;69.03;36.20;;;;;;;0.10;75.41;100105.87;125702;1093;104485;-69
2020/12/20 10:26:16;;;;;;;69.70;35.45;;;;;;;0.05;75.37;100112.05;125750;1093;104484;-71
2020/12/20 10:28:46;;;;;;;71.30;34.10;;;;;;;0.05;75.58;100101.59;125752;1093;104995;-69
2020/12/20 10:31:20;;;;;;;75.57;37.90;;;;;;;0.01;75.42;100094.66;125594;1093;104510;-68
2020/12/20 10:33:49;;;;;;;80.75;41.50;;;;;;;0.06;75.95;100100.70;125756;1093;104445;-70
2020/12/20 10:36:16;;;;;;;76.03;38.57;;;;;;;0.12;75.62;100093.63;125794;1094;104554;-71
2020/12/20 10:38:47;;;;;;;74.23;41.60;;;;;;;0.17;75.95;100108.41;125735;1093;104499;-71
2020/12/20 10:41:16;;;;;;;84.50;41.40;;;;;;;0.22;75.90;100094.36;125656;1093;104437;-69
2020/12/20 10:43:43;;;;;;;76.82;38.53;;;;;;;0.27;76.38;100094.32;125834;1093;104531;-69
2020/12/20 10:46:12;;;;;;;78.07;40.60;;;;;;;0.36;75.95;100091.58;125699;1093;104523;-69
2020/12/20 10:48:40;;;;;;;86.40;44.47;;;;;;;0.42;75.88;100085.38;125696;1093;104596;-72
2020/12/20 10:51:10;;;;;;;90.10;46.30;;;;;;;0.48;76.08;100079.17;125665;1093;105557;-68
2020/12/20 10:53:39;;;;;;;90.83;44.30;;;;;;;0.53;75.89;100086.09;125716;1093;104446;-69
2020/12/20 10:56:06;;;;;;;93.30;48.55;;;;;;;0.61;76.08;100091.20;125721;1101;104446;-70
2020/12/20 10:58:33;;;;;;;85.10;44.43;;;;;;;0.67;75.97;100085.00;125819;1101;104472;-69
2020/12/20 11:01:02;;;;;;;84.13;43.43;;;;;;;0.69;76.37;100084.10;125698;1101;104548;-71
2020/12/20 11:03:30;;;;;;;77.83;40.60;;;;;;;0.74;76.17;100082.28;125879;1101;104426;-70